sensor_id;sensor_type;location;lat;lon;timestamp;pressure;altitude;pressure_sealevel;temperature;humidity
41573;BME280;27286;47.870;19.006;2023-03-21T00:01:13;99284.69;;;6.76;88.89
41573;BME280;27286;47.870;19.006;2023-03-21T00:03:39;99287.59;;;6.63;87.45
41573;BME280;27286;47.870;19.006;2023-03-21T00:06:09;99278.47;;;6.50;88.43
41573;BME280;27286;47.870;19.006;2023-03-21T00:08:36;99284.41;;;6.55;88.57
41573;BME280;27286;47.870;19.006;2023-03-21T00:11:04;99278.88;;;6.35;87.90
41573;BME280;27286;47.870;19.006;2023-03-21T00:13:31;99278.94;;;6.33;88.58
41573;BME280;27286;47.870;19.006;2023-03-21T00:16:07;99270.63;;;6.53;90.32
41573;BME280;27286;47.870;19.006;2023-03-21T00:18:33;99269.38;;;6.68;89.47
41573;BME280;27286;47.870;19.006;2023-03-21T00:21:06;99270.63;;;6.53;87.98
41573;BME280;27286;47.870;19.006;2023-03-21T00:23:33;99265.84;;;6.40;87.99
41573;BME280;27286;47.870;19.006;2023-03-21T00:25:59;99273.97;;;6.58;90.45
41573;BME280;27286;47.870;19.006;2023-03-21T00:28:25;99264.84;;;6.45;89.00
41573;BME280;27286;47.870;19.006;2023-03-21T00:30:57;99267.78;;;6.31;88.62
41573;BME280;27286;47.870;19.006;2023-03-21T00:33:23;99264.63;;;6.22;89.73
41573;BME280;27286;47.870;19.006;2023-03-21T00:35:49;99268.94;;;6.20;90.22
41573;BME280;27286;47.870;19.006;2023-03-21T00:38:16;99267.47;;;6.44;91.36
41573;BME280;27286;47.870;19.006;2023-03-21T00:40:42;99265.88;;;6.38;90.32
41573;BME280;27286;47.870;19.006;2023-03-21T00:43:07;99253.28;;;6.26;90.24
41573;BME280;27286;47.870;19.006;2023-03-21T00:45:33;99253.53;;;6.17;90.83
41573;BME280;27286;47.870;19.006;2023-03-21T00:47:58;99251.34;;;6.34;93.81
41573;BME280;27286;47.870;19.006;2023-03-21T00:50:24;99254.53;;;6.44;92.73
41573;BME280;27286;47.870;19.006;2023-03-21T00:52:49;99245.13;;;6.41;91.97
41573;BME280;27286;47.870;19.006;2023-03-21T00:55:17;99249.66;;;6.33;91.68
41573;BME280;27286;47.870;19.006;2023-03-21T00:57:42;99245.69;;;6.20;91.69
41573;BME280;27286;47.870;19.006;2023-03-21T01:00:12;99242.56;;;6.09;91.88
41573;BME280;27286;47.870;19.006;2023-03-21T01:02:39;99245.41;;;5.98;91.92
41573;BME280;27286;47.870;19.006;2023-03-21T01:05:25;99240.28;;;5.96;93.16
41573;BME280;27286;47.870;19.006;2023-03-21T01:08:11;99242.13;;;5.91;93.45
41573;BME280;27286;47.870;19.006;2023-03-21T01:10:41;99241.31;;;5.88;93.52
41573;BME280;27286;47.870;19.006;2023-03-21T01:13:08;99237.06;;;5.85;93.80
41573;BME280;27286;47.870;19.006;2023-03-21T01:15:35;99244.81;;;5.85;94.08
41573;BME280;27286;47.870;19.006;2023-03-21T01:18:00;99239.56;;;5.91;94.34
41573;BME280;27286;47.870;19.006;2023-03-21T01:20:26;99240.44;;;5.90;94.33
41573;BME280;27286;47.870;19.006;2023-03-21T01:22:52;99236.13;;;5.89;94.34
41573;BME280;27286;47.870;19.006;2023-03-21T01:25:18;99238.00;;;5.83;94.20
41573;BME280;27286;47.870;19.006;2023-03-21T01:27:43;99239.06;;;5.76;93.94
41573;BME280;27286;47.870;19.006;2023-03-21T01:30:09;99235.84;;;5.66;93.76
41573;BME280;27286;47.870;19.006;2023-03-21T01:32:35;99234.22;;;5.62;93.29
41573;BME280;27286;47.870;19.006;2023-03-21T01:35:01;99237.78;;;5.58;93.42
41573;BME280;27286;47.870;19.006;2023-03-21T01:37:26;99223.22;;;5.54;93.09
41573;BME280;27286;47.870;19.006;2023-03-21T01:39:51;99230.91;;;5.57;93.32
41573;BME280;27286;47.870;19.006;2023-03-21T01:42:17;99234.28;;;5.60;93.32
41573;BME280;27286;47.870;19.006;2023-03-21T01:44:58;99235.91;;;5.63;93.31
41573;BME280;27286;47.870;19.006;2023-03-21T01:47:25;99227.25;;;5.65;93.72
41573;BME280;27286;47.870;19.006;2023-03-21T01:49:54;99227.28;;;5.64;94.16
41573;BME280;27286;47.870;19.006;2023-03-21T01:52:25;99229.81;;;5.65;94.21
41573;BME280;27286;47.870;19.006;2023-03-21T01:54:52;99223.81;;;5.65;94.27
41573;BME280;27286;47.870;19.006;2023-03-21T01:57:28;99228.97;;;5.65;94.42
41573;BME280;27286;47.870;19.006;2023-03-21T01:59:58;99221.09;;;5.69;94.51
41573;BME280;27286;47.870;19.006;2023-03-21T02:02:30;99224.44;;;5.74;94.72
41573;BME280;27286;47.870;19.006;2023-03-21T02:05:00;99222.63;;;5.78;94.72
41573;BME280;27286;47.870;19.006;2023-03-21T02:07:30;99227.72;;;5.81;94.54
41573;BME280;27286;47.870;19.006;2023-03-21T02:09:57;99227.66;;;5.83;94.66
41573;BME280;27286;47.870;19.006;2023-03-21T02:12:24;99220.69;;;5.86;94.65
41573;BME280;27286;47.870;19.006;2023-03-21T02:14:51;99210.41;;;5.85;94.89
41573;BME280;27286;47.870;19.006;2023-03-21T02:20:15;99219.78;;;5.90;94.64
41573;BME280;27286;47.870;19.006;2023-03-21T02:23:05;99217.22;;;5.87;95.45
41573;BME280;27286;47.870;19.006;2023-03-21T02:26:19;99221.22;;;6.00;96.05
41573;BME280;27286;47.870;19.006;2023-03-21T02:29:02;99216.00;;;6.02;95.41
41573;BME280;27286;47.870;19.006;2023-03-21T02:31:48;99214.97;;;6.09;95.30
41573;BME280;27286;47.870;19.006;2023-03-21T02:37:21;99221.78;;;6.12;95.75
41573;BME280;27286;47.870;19.006;2023-03-21T02:45:16;99224.97;;;6.21;94.66
41573;BME280;27286;47.870;19.006;2023-03-21T02:47:57;99224.19;;;6.18;94.89
41573;BME280;27286;47.870;19.006;2023-03-21T02:52:59;99220.72;;;6.19;95.78
41573;BME280;27286;47.870;19.006;2023-03-21T02:55:28;99217.09;;;6.26;95.38
41573;BME280;27286;47.870;19.006;2023-03-21T02:57:56;99214.47;;;6.27;95.35
41573;BME280;27286;47.870;19.006;2023-03-21T03:00:25;99219.47;;;6.33;95.98
41573;BME280;27286;47.870;19.006;2023-03-21T03:02:52;99214.44;;;6.29;95.51
41573;BME280;27286;47.870;19.006;2023-03-21T03:05:26;99220.59;;;6.25;95.22
41573;BME280;27286;47.870;19.006;2023-03-21T03:10:45;99213.81;;;6.19;95.83
41573;BME280;27286;47.870;19.006;2023-03-21T03:19:10;99215.50;;;6.22;96.60
41573;BME280;27286;47.870;19.006;2023-03-21T03:21:48;99222.19;;;6.29;96.57
41573;BME280;27286;47.870;19.006;2023-03-21T03:24:36;99216.72;;;6.40;96.39
41573;BME280;27286;47.870;19.006;2023-03-21T03:27:08;99213.78;;;6.52;96.39
41573;BME280;27286;47.870;19.006;2023-03-21T03:29:38;99212.34;;;6.71;96.96
41573;BME280;27286;47.870;19.006;2023-03-21T03:32:11;99207.75;;;7.10;96.51
41573;BME280;27286;47.870;19.006;2023-03-21T03:34:42;99208.06;;;7.54;94.38
41573;BME280;27286;47.870;19.006;2023-03-21T03:37:13;99209.34;;;7.94;91.55
41573;BME280;27286;47.870;19.006;2023-03-21T03:39:45;99204.28;;;8.15;89.58
41573;BME280;27286;47.870;19.006;2023-03-21T03:42:16;99206.25;;;8.34;88.66
41573;BME280;27286;47.870;19.006;2023-03-21T03:44:43;99204.84;;;8.49;87.23
41573;BME280;27286;47.870;19.006;2023-03-21T03:50:01;99205.66;;;8.74;85.18
41573;BME280;27286;47.870;19.006;2023-03-21T03:52:44;99205.28;;;8.83;84.10
41573;BME280;27286;47.870;19.006;2023-03-21T03:55:13;99203.28;;;8.91;83.83
41573;BME280;27286;47.870;19.006;2023-03-21T03:57:40;99201.41;;;8.95;83.69
41573;BME280;27286;47.870;19.006;2023-03-21T04:00:06;99202.97;;;8.99;83.06
41573;BME280;27286;47.870;19.006;2023-03-21T04:02:37;99198.34;;;9.07;82.45
41573;BME280;27286;47.870;19.006;2023-03-21T04:05:03;99195.75;;;9.07;82.34
41573;BME280;27286;47.870;19.006;2023-03-21T04:07:30;99194.88;;;9.07;82.54
41573;BME280;27286;47.870;19.006;2023-03-21T04:09:56;99193.09;;;9.09;82.91
41573;BME280;27286;47.870;19.006;2023-03-21T04:12:22;99193.88;;;9.11;82.53
41573;BME280;27286;47.870;19.006;2023-03-21T04:14:48;99191.31;;;9.09;82.59
41573;BME280;27286;47.870;19.006;2023-03-21T04:17:14;99196.59;;;9.08;82.31
41573;BME280;27286;47.870;19.006;2023-03-21T04:19:40;99190.34;;;9.12;81.39
41573;BME280;27286;47.870;19.006;2023-03-21T04:22:05;99184.78;;;9.21;80.49
41573;BME280;27286;47.870;19.006;2023-03-21T04:24:31;99184.44;;;9.30;79.99
41573;BME280;27286;47.870;19.006;2023-03-21T04:26:59;99184.25;;;9.34;79.74
41573;BME280;27286;47.870;19.006;2023-03-21T04:29:25;99185.03;;;9.37;79.98
41573;BME280;27286;47.870;19.006;2023-03-21T04:31:54;99180.66;;;9.37;79.72
41573;BME280;27286;47.870;19.006;2023-03-21T04:34:20;99178.91;;;9.38;79.45
41573;BME280;27286;47.870;19.006;2023-03-21T04:36:50;99187.47;;;9.41;79.13
41573;BME280;27286;47.870;19.006;2023-03-21T04:39:19;99186.47;;;9.44;78.94
41573;BME280;27286;47.870;19.006;2023-03-21T04:41:45;99188.31;;;9.42;79.17
41573;BME280;27286;47.870;19.006;2023-03-21T04:44:12;99183.19;;;9.39;79.20
41573;BME280;27286;47.870;19.006;2023-03-21T04:46:38;99183.28;;;9.37;79.11
41573;BME280;27286;47.870;19.006;2023-03-21T04:49:05;99191.00;;;9.39;78.47
41573;BME280;27286;47.870;19.006;2023-03-21T04:51:34;99184.19;;;9.36;79.14
41573;BME280;27286;47.870;19.006;2023-03-21T04:54:00;99192.81;;;9.37;78.96
41573;BME280;27286;47.870;19.006;2023-03-21T04:56:26;99190.34;;;9.33;79.45
41573;BME280;27286;47.870;19.006;2023-03-21T04:58:57;99189.63;;;9.30;79.78
41573;BME280;27286;47.870;19.006;2023-03-21T05:01:23;99195.97;;;9.23;79.67
41573;BME280;27286;47.870;19.006;2023-03-21T05:03:50;99194.84;;;9.08;80.34
41573;BME280;27286;47.870;19.006;2023-03-21T05:06:16;99198.50;;;9.02;80.73
41573;BME280;27286;47.870;19.006;2023-03-21T05:08:42;99205.94;;;9.12;80.33
41573;BME280;27286;47.870;19.006;2023-03-21T05:11:07;99198.44;;;9.04;80.47
41573;BME280;27286;47.870;19.006;2023-03-21T05:13:33;99205.94;;;9.12;80.41
41573;BME280;27286;47.870;19.006;2023-03-21T05:15:58;99204.41;;;9.06;80.41
41573;BME280;27286;47.870;19.006;2023-03-21T05:18:23;99216.91;;;8.96;80.96
41573;BME280;27286;47.870;19.006;2023-03-21T05:20:50;99211.97;;;8.90;81.34
41573;BME280;27286;47.870;19.006;2023-03-21T05:23:23;99216.78;;;8.99;81.26
41573;BME280;27286;47.870;19.006;2023-03-21T05:25:49;99215.09;;;8.98;81.07
41573;BME280;27286;47.870;19.006;2023-03-21T05:28:14;99213.59;;;8.93;81.07
41573;BME280;27286;47.870;19.006;2023-03-21T05:30:45;99217.25;;;8.87;81.64
41573;BME280;27286;47.870;19.006;2023-03-21T05:33:11;99217.31;;;8.86;81.46
41573;BME280;27286;47.870;19.006;2023-03-21T05:35:38;99222.44;;;8.87;81.78
41573;BME280;27286;47.870;19.006;2023-03-21T05:38:03;99222.34;;;8.90;81.91
41573;BME280;27286;47.870;19.006;2023-03-21T05:40:29;99223.19;;;8.91;82.16
41573;BME280;27286;47.870;19.006;2023-03-21T05:42:54;99231.66;;;8.96;81.75
41573;BME280;27286;47.870;19.006;2023-03-21T05:45:20;99224.81;;;8.93;82.05
41573;BME280;27286;47.870;19.006;2023-03-21T05:47:45;99230.97;;;8.91;82.30
41573;BME280;27286;47.870;19.006;2023-03-21T05:50:11;99220.28;;;8.98;81.61
41573;BME280;27286;47.870;19.006;2023-03-21T05:52:38;99223.22;;;9.13;81.13
41573;BME280;27286;47.870;19.006;2023-03-21T05:55:04;99221.41;;;9.15;81.28
41573;BME280;27286;47.870;19.006;2023-03-21T05:57:30;99221.34;;;9.16;81.33
41573;BME280;27286;47.870;19.006;2023-03-21T05:59:59;99228.28;;;9.16;81.36
41573;BME280;27286;47.870;19.006;2023-03-21T06:02:25;99227.56;;;9.12;82.62
41573;BME280;27286;47.870;19.006;2023-03-21T06:04:50;99224.78;;;9.17;82.39
41573;BME280;27286;47.870;19.006;2023-03-21T06:07:15;99228.84;;;9.24;82.08
41573;BME280;27286;47.870;19.006;2023-03-21T06:09:41;99228.41;;;9.34;81.86
41573;BME280;27286;47.870;19.006;2023-03-21T06:12:06;99234.63;;;9.52;81.36
41573;BME280;27286;47.870;19.006;2023-03-21T06:14:32;99238.28;;;9.69;80.03
41573;BME280;27286;47.870;19.006;2023-03-21T06:16:57;99238.44;;;9.86;79.91
41573;BME280;27286;47.870;19.006;2023-03-21T06:19:23;99240.13;;;10.07;79.50
41573;BME280;27286;47.870;19.006;2023-03-21T06:21:48;99230.06;;;10.20;78.49
41573;BME280;27286;47.870;19.006;2023-03-21T06:24:14;99231.97;;;10.37;76.99
41573;BME280;27286;47.870;19.006;2023-03-21T06:26:39;99239.88;;;10.54;75.44
41573;BME280;27286;47.870;19.006;2023-03-21T06:29:07;99236.28;;;10.77;74.35
41573;BME280;27286;47.870;19.006;2023-03-21T06:31:32;99232.91;;;10.94;73.63
41573;BME280;27286;47.870;19.006;2023-03-21T06:33:58;99233.06;;;11.09;73.43
41573;BME280;27286;47.870;19.006;2023-03-21T06:36:23;99222.81;;;11.24;72.79
41573;BME280;27286;47.870;19.006;2023-03-21T06:38:48;99236.78;;;11.40;72.84
41573;BME280;27286;47.870;19.006;2023-03-21T06:41:14;99240.84;;;11.64;70.92
41573;BME280;27286;47.870;19.006;2023-03-21T06:43:41;99237.81;;;11.91;70.51
41573;BME280;27286;47.870;19.006;2023-03-21T06:46:07;99238.59;;;12.10;70.28
41573;BME280;27286;47.870;19.006;2023-03-21T06:48:32;99231.81;;;12.23;69.01
41573;BME280;27286;47.870;19.006;2023-03-21T06:50:57;99229.50;;;12.34;69.39
41573;BME280;27286;47.870;19.006;2023-03-21T06:53:24;99234.69;;;12.52;67.75
41573;BME280;27286;47.870;19.006;2023-03-21T06:55:52;99230.94;;;12.73;67.96
41573;BME280;27286;47.870;19.006;2023-03-21T06:58:18;99232.03;;;13.18;65.82
41573;BME280;27286;47.870;19.006;2023-03-21T07:00:44;99228.75;;;13.46;64.30
41573;BME280;27286;47.870;19.006;2023-03-21T07:03:10;99217.25;;;14.95;58.13
41573;BME280;27286;47.870;19.006;2023-03-21T07:05:36;99225.94;;;17.18;51.34
41573;BME280;27286;47.870;19.006;2023-03-21T07:08:02;99219.25;;;18.43;46.90
41573;BME280;27286;47.870;19.006;2023-03-21T07:10:28;99213.44;;;18.84;44.47
41573;BME280;27286;47.870;19.006;2023-03-21T07:12:54;99212.16;;;19.76;43.16
41573;BME280;27286;47.870;19.006;2023-03-21T07:15:20;99217.72;;;19.94;42.67
41573;BME280;27286;47.870;19.006;2023-03-21T07:17:46;99219.78;;;19.04;42.47
41573;BME280;27286;47.870;19.006;2023-03-21T07:20:11;99224.88;;;17.81;46.61
41573;BME280;27286;47.870;19.006;2023-03-21T07:22:37;99228.94;;;16.88;48.78
41573;BME280;27286;47.870;19.006;2023-03-21T07:25:04;99236.28;;;16.07;51.34
41573;BME280;27286;47.870;19.006;2023-03-21T07:27:29;99229.69;;;15.74;52.02
41573;BME280;27286;47.870;19.006;2023-03-21T07:29:55;99234.66;;;15.38;53.93
41573;BME280;27286;47.870;19.006;2023-03-21T07:32:21;99240.28;;;14.76;56.04
41573;BME280;27286;47.870;19.006;2023-03-21T07:34:46;99235.91;;;14.62;57.22
41573;BME280;27286;47.870;19.006;2023-03-21T07:37:12;99240.75;;;14.24;58.29
41573;BME280;27286;47.870;19.006;2023-03-21T07:39:37;99245.69;;;14.00;59.28
41573;BME280;27286;47.870;19.006;2023-03-21T07:42:03;99251.38;;;14.07;60.43
41573;BME280;27286;47.870;19.006;2023-03-21T07:44:28;99251.56;;;14.04;59.76
41573;BME280;27286;47.870;19.006;2023-03-21T07:46:55;99249.41;;;14.10;59.56
41573;BME280;27286;47.870;19.006;2023-03-21T07:49:20;99256.75;;;14.20;58.39
41573;BME280;27286;47.870;19.006;2023-03-21T07:51:46;99256.22;;;14.29;58.74
41573;BME280;27286;47.870;19.006;2023-03-21T07:54:11;99256.50;;;14.38;58.23
41573;BME280;27286;47.870;19.006;2023-03-21T07:56:37;99262.69;;;14.37;57.24
41573;BME280;27286;47.870;19.006;2023-03-21T07:59:02;99264.03;;;14.59;57.47
41573;BME280;27286;47.870;19.006;2023-03-21T08:01:29;99260.97;;;14.95;56.10
41573;BME280;27286;47.870;19.006;2023-03-21T08:03:54;99260.19;;;15.07;55.86
41573;BME280;27286;47.870;19.006;2023-03-21T08:06:20;99261.56;;;15.27;55.12
41573;BME280;27286;47.870;19.006;2023-03-21T08:08:46;99254.13;;;15.48;54.44
41573;BME280;27286;47.870;19.006;2023-03-21T08:11:11;99251.28;;;15.65;54.61
41573;BME280;27286;47.870;19.006;2023-03-21T08:13:37;99253.38;;;16.12;51.51
41573;BME280;27286;47.870;19.006;2023-03-21T08:16:03;99249.44;;;16.19;52.00
41573;BME280;27286;47.870;19.006;2023-03-21T08:18:29;99253.19;;;16.03;51.49
41573;BME280;27286;47.870;19.006;2023-03-21T08:20:56;99250.13;;;15.96;52.83
41573;BME280;27286;47.870;19.006;2023-03-21T08:23:23;99249.00;;;16.13;52.12
41573;BME280;27286;47.870;19.006;2023-03-21T08:25:55;99250.38;;;17.07;49.82
41573;BME280;27286;47.870;19.006;2023-03-21T08:28:21;99250.25;;;17.45;47.39
41573;BME280;27286;47.870;19.006;2023-03-21T08:30:47;99249.88;;;17.26;48.17
41573;BME280;27286;47.870;19.006;2023-03-21T08:33:13;99240.91;;;16.29;50.14
41573;BME280;27286;47.870;19.006;2023-03-21T08:35:38;99250.56;;;15.76;51.35
41573;BME280;27286;47.870;19.006;2023-03-21T08:38:05;99255.97;;;15.87;52.15
41573;BME280;27286;47.870;19.006;2023-03-21T08:40:31;99262.47;;;14.99;54.80
41573;BME280;27286;47.870;19.006;2023-03-21T08:42:57;99261.69;;;14.54;56.67
41573;BME280;27286;47.870;19.006;2023-03-21T08:45:23;99258.00;;;14.28;56.70
41573;BME280;27286;47.870;19.006;2023-03-21T08:47:49;99268.16;;;14.19;57.48
41573;BME280;27286;47.870;19.006;2023-03-21T08:50:18;99257.94;;;15.15;55.55
41573;BME280;27286;47.870;19.006;2023-03-21T08:52:44;99251.19;;;17.81;49.03
41573;BME280;27286;47.870;19.006;2023-03-21T08:55:10;99248.38;;;19.31;43.62
41573;BME280;27286;47.870;19.006;2023-03-21T08:57:36;99241.59;;;20.66;40.16
41573;BME280;27286;47.870;19.006;2023-03-21T09:00:04;99236.94;;;22.08;37.85
41573;BME280;27286;47.870;19.006;2023-03-21T09:02:37;99246.34;;;22.49;36.78
41573;BME280;27286;47.870;19.006;2023-03-21T09:05:02;99250.31;;;22.83;35.19
41573;BME280;27286;47.870;19.006;2023-03-21T09:07:30;99241.59;;;23.27;34.92
41573;BME280;27286;47.870;19.006;2023-03-21T09:09:58;99247.28;;;23.32;34.74
41573;BME280;27286;47.870;19.006;2023-03-21T09:12:24;99238.44;;;23.41;33.90
41573;BME280;27286;47.870;19.006;2023-03-21T09:14:50;99239.88;;;23.08;34.30
41573;BME280;27286;47.870;19.006;2023-03-21T09:17:17;99239.88;;;23.36;33.87
41573;BME280;27286;47.870;19.006;2023-03-21T09:19:43;99236.16;;;23.74;33.71
41573;BME280;27286;47.870;19.006;2023-03-21T09:22:10;99230.00;;;23.46;33.49
41573;BME280;27286;47.870;19.006;2023-03-21T09:24:42;99236.34;;;22.90;34.27
41573;BME280;27286;47.870;19.006;2023-03-21T09:27:10;99241.03;;;19.68;40.66
41573;BME280;27286;47.870;19.006;2023-03-21T09:29:36;99222.13;;;21.57;36.89
41573;BME280;27286;47.870;19.006;2023-03-21T09:32:01;99228.69;;;20.31;38.95
41573;BME280;27286;47.870;19.006;2023-03-21T09:34:28;99225.69;;;22.43;34.32
41573;BME280;27286;47.870;19.006;2023-03-21T09:36:53;99230.50;;;22.11;34.38
41573;BME280;27286;47.870;19.006;2023-03-21T09:39:22;99222.63;;;22.95;32.89
41573;BME280;27286;47.870;19.006;2023-03-21T09:42:06;99219.53;;;20.14;35.87
41573;BME280;27286;47.870;19.006;2023-03-21T09:44:41;99227.06;;;19.23;38.70
41573;BME280;27286;47.870;19.006;2023-03-21T09:47:20;99224.81;;;19.94;37.37
41573;BME280;27286;47.870;19.006;2023-03-21T09:50:10;99227.09;;;20.19;38.14
41573;BME280;27286;47.870;19.006;2023-03-21T09:55:21;99227.28;;;21.09;36.91
41573;BME280;27286;47.870;19.006;2023-03-21T10:00:43;99220.47;;;23.08;31.39
41573;BME280;27286;47.870;19.006;2023-03-21T10:03:24;99218.09;;;24.39;29.30
41573;BME280;27286;47.870;19.006;2023-03-21T10:05:52;99216.91;;;24.68;28.99
41573;BME280;27286;47.870;19.006;2023-03-21T10:08:35;99219.91;;;25.49;28.24
41573;BME280;27286;47.870;19.006;2023-03-21T10:13:48;99209.13;;;27.04;25.28
41573;BME280;27286;47.870;19.006;2023-03-21T10:16:20;99214.56;;;27.49;25.90
41573;BME280;27286;47.870;19.006;2023-03-21T10:18:47;99216.63;;;28.98;24.10
41573;BME280;27286;47.870;19.006;2023-03-21T10:21:24;99208.09;;;29.60;22.58
41573;BME280;27286;47.870;19.006;2023-03-21T10:23:53;99209.03;;;27.82;25.35
41573;BME280;27286;47.870;19.006;2023-03-21T10:26:21;99210.41;;;27.24;25.11
41573;BME280;27286;47.870;19.006;2023-03-21T10:28:48;99207.78;;;27.70;25.12
41573;BME280;27286;47.870;19.006;2023-03-21T10:31:17;99207.09;;;28.66;23.65
41573;BME280;27286;47.870;19.006;2023-03-21T10:33:45;99210.47;;;28.30;23.10
41573;BME280;27286;47.870;19.006;2023-03-21T10:36:15;99208.22;;;29.52;22.33
41573;BME280;27286;47.870;19.006;2023-03-21T10:39:13;99218.34;;;30.14;22.21
41573;BME280;27286;47.870;19.006;2023-03-21T10:41:42;99218.22;;;30.84;22.45
41573;BME280;27286;47.870;19.006;2023-03-21T10:44:13;99201.44;;;32.31;18.64
41573;BME280;27286;47.870;19.006;2023-03-21T10:46:58;99203.41;;;32.75;20.15
41573;BME280;27286;47.870;19.006;2023-03-21T10:49:29;99205.38;;;32.35;19.94
41573;BME280;27286;47.870;19.006;2023-03-21T10:52:02;99196.22;;;31.90;21.43
41573;BME280;27286;47.870;19.006;2023-03-21T10:54:33;99201.41;;;31.91;21.73
41573;BME280;27286;47.870;19.006;2023-03-21T10:57:14;99190.06;;;33.07;19.17
41573;BME280;27286;47.870;19.006;2023-03-21T10:59:45;99192.50;;;31.91;19.41
41573;BME280;27286;47.870;19.006;2023-03-21T11:02:25;99193.72;;;32.54;19.80
41573;BME280;27286;47.870;19.006;2023-03-21T11:04:53;99190.81;;;32.56;18.71
41573;BME280;27286;47.870;19.006;2023-03-21T11:07:20;99184.34;;;33.35;18.40
41573;BME280;27286;47.870;19.006;2023-03-21T11:09:56;99181.66;;;32.83;17.33
41573;BME280;27286;47.870;19.006;2023-03-21T11:12:34;99180.44;;;30.58;20.13
41573;BME280;27286;47.870;19.006;2023-03-21T11:18:20;99167.78;;;29.96;20.35
41573;BME280;27286;47.870;19.006;2023-03-21T11:21:03;99168.31;;;31.17;19.94
41573;BME280;27286;47.870;19.006;2023-03-21T11:23:31;99164.44;;;31.26;19.76
41573;BME280;27286;47.870;19.006;2023-03-21T11:25:59;99160.50;;;30.74;20.57
41573;BME280;27286;47.870;19.006;2023-03-21T11:28:32;99153.56;;;30.02;20.63
41573;BME280;27286;47.870;19.006;2023-03-21T11:31:02;99159.38;;;30.27;20.74
41573;BME280;27286;47.870;19.006;2023-03-21T11:33:34;99151.16;;;30.35;19.90
41573;BME280;27286;47.870;19.006;2023-03-21T11:36:31;99156.53;;;29.86;21.30
41573;BME280;27286;47.870;19.006;2023-03-21T11:39:11;99144.75;;;31.19;20.26
41573;BME280;27286;47.870;19.006;2023-03-21T11:41:39;99133.91;;;31.99;19.03
41573;BME280;27286;47.870;19.006;2023-03-21T11:44:05;99133.50;;;32.09;18.00
41573;BME280;27286;47.870;19.006;2023-03-21T11:46:31;99140.13;;;32.00;18.73
41573;BME280;27286;47.870;19.006;2023-03-21T11:49:04;99135.13;;;33.01;17.21
41573;BME280;27286;47.870;19.006;2023-03-21T12:05:40;99119.59;;;31.66;19.42
41573;BME280;27286;47.870;19.006;2023-03-21T12:11:26;99115.25;;;32.96;17.90
41573;BME280;27286;47.870;19.006;2023-03-21T12:14:15;99114.28;;;32.77;17.60
41573;BME280;27286;47.870;19.006;2023-03-21T12:20:06;99101.81;;;31.98;18.03
41573;BME280;27286;47.870;19.006;2023-03-21T12:25:29;99108.22;;;24.21;26.89
41573;BME280;27286;47.870;19.006;2023-03-21T12:28:27;99120.44;;;22.99;29.28
41573;BME280;27286;47.870;19.006;2023-03-21T12:31:05;99131.50;;;21.73;30.91
41573;BME280;27286;47.870;19.006;2023-03-21T12:34:05;99128.25;;;20.62;32.29
41573;BME280;27286;47.870;19.006;2023-03-21T12:39:34;99122.50;;;19.11;34.01
41573;BME280;27286;47.870;19.006;2023-03-21T12:44:44;99112.31;;;19.17;34.87
41573;BME280;27286;47.870;19.006;2023-03-21T12:47:13;99106.59;;;19.65;34.95
41573;BME280;27286;47.870;19.006;2023-03-21T12:52:25;99095.50;;;20.43;34.73
41573;BME280;27286;47.870;19.006;2023-03-21T12:58:04;99086.03;;;21.00;32.26
41573;BME280;27286;47.870;19.006;2023-03-21T13:00:37;99090.06;;;21.05;31.99
41573;BME280;27286;47.870;19.006;2023-03-21T13:03:19;99080.47;;;21.32;32.54
41573;BME280;27286;47.870;19.006;2023-03-21T13:06:01;99078.63;;;21.14;33.11
41573;BME280;27286;47.870;19.006;2023-03-21T13:11:00;99075.91;;;20.56;34.36
41573;BME280;27286;47.870;19.006;2023-03-21T13:13:37;99071.47;;;20.26;34.21
41573;BME280;27286;47.870;19.006;2023-03-21T13:24:48;99085.50;;;19.01;34.54
41573;BME280;27286;47.870;19.006;2023-03-21T13:32:41;99076.00;;;18.67;35.53
41573;BME280;27286;47.870;19.006;2023-03-21T13:35:25;99084.03;;;17.98;36.64
41573;BME280;27286;47.870;19.006;2023-03-21T13:38:20;99070.03;;;17.62;36.96
41573;BME280;27286;47.870;19.006;2023-03-21T13:40:47;99075.09;;;17.30;38.09
41573;BME280;27286;47.870;19.006;2023-03-21T13:43:52;99069.69;;;17.21;39.30
41573;BME280;27286;47.870;19.006;2023-03-21T14:04:36;99062.13;;;17.51;36.26
41573;BME280;27286;47.870;19.006;2023-03-21T14:07:09;99047.25;;;17.85;36.23
41573;BME280;27286;47.870;19.006;2023-03-21T14:09:50;99041.75;;;18.22;35.76
41573;BME280;27286;47.870;19.006;2023-03-21T14:12:36;99040.06;;;18.10;36.18
41573;BME280;27286;47.870;19.006;2023-03-21T14:17:52;99034.97;;;17.62;36.10
41573;BME280;27286;47.870;19.006;2023-03-21T14:20:25;99036.13;;;17.47;36.68
41573;BME280;27286;47.870;19.006;2023-03-21T14:22:51;99037.06;;;17.69;37.68
41573;BME280;27286;47.870;19.006;2023-03-21T14:25:19;99031.38;;;17.63;37.09
41573;BME280;27286;47.870;19.006;2023-03-21T14:27:52;99033.53;;;17.58;39.58
41573;BME280;27286;47.870;19.006;2023-03-21T14:30:26;99038.03;;;17.44;39.66
41573;BME280;27286;47.870;19.006;2023-03-21T14:33:02;99032.19;;;17.41;40.77
41573;BME280;27286;47.870;19.006;2023-03-21T14:35:30;99031.09;;;17.32;40.06
41573;BME280;27286;47.870;19.006;2023-03-21T14:38:00;99031.91;;;17.22;39.65
41573;BME280;27286;47.870;19.006;2023-03-21T14:40:26;99031.34;;;17.05;38.75
41573;BME280;27286;47.870;19.006;2023-03-21T14:42:53;99035.53;;;17.08;40.22
41573;BME280;27286;47.870;19.006;2023-03-21T14:45:28;99024.44;;;17.04;38.89
41573;BME280;27286;47.870;19.006;2023-03-21T14:48:16;99019.50;;;17.00;39.70
41573;BME280;27286;47.870;19.006;2023-03-21T14:50:49;99016.78;;;17.01;38.99
41573;BME280;27286;47.870;19.006;2023-03-21T14:53:25;99019.78;;;17.08;39.80
41573;BME280;27286;47.870;19.006;2023-03-21T14:55:58;99023.22;;;17.08;40.35
41573;BME280;27286;47.870;19.006;2023-03-21T14:58:24;99009.84;;;17.00;39.71